Airfield :







YOU CAN JOIN US ON...

 
LOGIN :

Register | Disclaimer

   EN    FR    IT 

 









Legend :    VFR   Marginal VFR   IFR   Intensive IFR   Very Intensive IFR
Visi :
Ceiling :
>= 8 km
>= 3000ft
5 to 8 km
1000 to 3000 ft
1500m to 5 km
500 to 1000 ft
800 to 1500m
200 to 500 ft
< 800m
< 200 ft
Symbols :   Thunderstorms  Fog  Heavy snow  Heavy precipitations  Wind > 20 kt







- Airport Elevation : 27 ft
- IATA code : FSP
- Download approach charts


LFVP - St Pierre et Miquelon

CURRENT METAR :
  • 171900Z 21010KT CAVOK 16/13 Q1012 NOSIG

EXPIRED METARs :
  • 171800Z 15005KT 110V180 CAVOK 17/14 Q1012 NOSIG
  • 171700Z 20005KT 170V230 CAVOK 19/16 Q1013 NOSIG

TAF TAF LFVP
Valid from the 17 at 18:00 until the 18 at 03:00 UTC


171700Z 1718/1803 15005KT CAVOK
BECMG 1720/1722 21010KT 2000 MIFG
BECMG 1723/1801 21020KT 0500 RA FG VV///
CZQX FIR / North America



MET'MAP, your aeronautical weather chart ! - Copyright ORBIFLY December 2007 - Disclaimer

ORBIFLY MET'MAP TEAM :

Programming & Development : Alexandra Zaïnal
Concept & Development : Baudouin d'Aumeries
Co-Development & Prog : Marc-Olivier Méhu
Technical & hardware support : Manuel Goepfert

Contact : metmap@orbifly.com




SOURCES & CREDITS :

   NOAA